sensor_id;sensor_type;location;lat;lon;timestamp;temperature;humidity
3942;DHT22;1985;48.592;8.850;2023-05-19T00:01:49;13.70;87.90
3942;DHT22;1985;48.592;8.850;2023-05-19T00:04:17;13.60;87.50
3942;DHT22;1985;48.592;8.850;2023-05-19T00:06:43;13.60;87.30
3942;DHT22;1985;48.592;8.850;2023-05-19T00:09:15;13.60;87.00
3942;DHT22;1985;48.592;8.850;2023-05-19T00:11:41;13.60;86.90
3942;DHT22;1985;48.592;8.850;2023-05-19T00:14:08;13.60;86.90
3942;DHT22;1985;48.592;8.850;2023-05-19T00:16:35;13.60;86.90
3942;DHT22;1985;48.592;8.850;2023-05-19T00:19:03;13.60;86.70
3942;DHT22;1985;48.592;8.850;2023-05-19T00:21:29;13.60;86.60
3942;DHT22;1985;48.592;8.850;2023-05-19T00:23:55;13.60;86.70
3942;DHT22;1985;48.592;8.850;2023-05-19T00:26:22;13.60;87.00
3942;DHT22;1985;48.592;8.850;2023-05-19T00:28:49;13.60;86.80
3942;DHT22;1985;48.592;8.850;2023-05-19T00:31:15;13.50;87.10
3942;DHT22;1985;48.592;8.850;2023-05-19T00:33:41;13.50;87.10
3942;DHT22;1985;48.592;8.850;2023-05-19T00:36:07;13.50;87.20
3942;DHT22;1985;48.592;8.850;2023-05-19T00:38:34;13.50;87.30
3942;DHT22;1985;48.592;8.850;2023-05-19T00:41:02;13.40;87.00
3942;DHT22;1985;48.592;8.850;2023-05-19T00:43:27;13.40;87.20
3942;DHT22;1985;48.592;8.850;2023-05-19T00:45:55;13.40;87.00
3942;DHT22;1985;48.592;8.850;2023-05-19T00:48:20;13.40;86.90
3942;DHT22;1985;48.592;8.850;2023-05-19T00:50:47;13.40;86.80
3942;DHT22;1985;48.592;8.850;2023-05-19T00:53:13;13.40;87.00
3942;DHT22;1985;48.592;8.850;2023-05-19T00:55:41;13.40;87.30
3942;DHT22;1985;48.592;8.850;2023-05-19T00:58:08;13.30;87.50
3942;DHT22;1985;48.592;8.850;2023-05-19T01:00:34;13.40;87.80
3942;DHT22;1985;48.592;8.850;2023-05-19T01:03:01;13.40;88.30
3942;DHT22;1985;48.592;8.850;2023-05-19T01:05:27;13.40;88.50
3942;DHT22;1985;48.592;8.850;2023-05-19T01:07:53;13.30;88.70
3942;DHT22;1985;48.592;8.850;2023-05-19T01:10:21;13.30;88.80
3942;DHT22;1985;48.592;8.850;2023-05-19T01:12:47;13.20;88.90
3942;DHT22;1985;48.592;8.850;2023-05-19T01:15:13;13.30;89.00
3942;DHT22;1985;48.592;8.850;2023-05-19T01:17:55;13.20;88.70
3942;DHT22;1985;48.592;8.850;2023-05-19T01:20:27;13.20;89.00
3942;DHT22;1985;48.592;8.850;2023-05-19T01:29:06;13.10;88.80
3942;DHT22;1985;48.592;8.850;2023-05-19T01:31:33;13.10;89.20
3942;DHT22;1985;48.592;8.850;2023-05-19T01:34:00;13.10;89.10
3942;DHT22;1985;48.592;8.850;2023-05-19T01:36:30;13.10;89.20
3942;DHT22;1985;48.592;8.850;2023-05-19T01:38:57;13.10;89.20
3942;DHT22;1985;48.592;8.850;2023-05-19T01:41:24;13.10;89.70
3942;DHT22;1985;48.592;8.850;2023-05-19T01:43:50;13.10;89.90
3942;DHT22;1985;48.592;8.850;2023-05-19T01:46:16;13.10;90.10
3942;DHT22;1985;48.592;8.850;2023-05-19T01:48:43;13.00;90.30
3942;DHT22;1985;48.592;8.850;2023-05-19T01:51:09;13.00;90.30
3942;DHT22;1985;48.592;8.850;2023-05-19T01:53:35;13.00;90.50
3942;DHT22;1985;48.592;8.850;2023-05-19T01:56:01;13.00;90.30
3942;DHT22;1985;48.592;8.850;2023-05-19T01:58:47;13.00;90.60
3942;DHT22;1985;48.592;8.850;2023-05-19T02:06:52;13.00;90.80
3942;DHT22;1985;48.592;8.850;2023-05-19T02:12:18;13.00;91.30
3942;DHT22;1985;48.592;8.850;2023-05-19T02:15:13;13.00;91.30
3942;DHT22;1985;48.592;8.850;2023-05-19T02:17:42;13.00;91.30
3942;DHT22;1985;48.592;8.850;2023-05-19T02:20:12;13.00;91.30
3942;DHT22;1985;48.592;8.850;2023-05-19T02:22:37;13.00;91.40
3942;DHT22;1985;48.592;8.850;2023-05-19T02:25:03;13.00;91.30
3942;DHT22;1985;48.592;8.850;2023-05-19T02:27:29;13.00;91.40
3942;DHT22;1985;48.592;8.850;2023-05-19T02:29:55;13.00;91.40
3942;DHT22;1985;48.592;8.850;2023-05-19T02:32:21;13.00;91.40
3942;DHT22;1985;48.592;8.850;2023-05-19T02:34:46;13.00;91.60
3942;DHT22;1985;48.592;8.850;2023-05-19T02:37:13;13.00;91.50
3942;DHT22;1985;48.592;8.850;2023-05-19T02:39:40;13.00;91.40
3942;DHT22;1985;48.592;8.850;2023-05-19T02:42:06;13.00;91.50
3942;DHT22;1985;48.592;8.850;2023-05-19T02:44:31;13.00;91.70
3942;DHT22;1985;48.592;8.850;2023-05-19T02:46:57;13.00;91.60
3942;DHT22;1985;48.592;8.850;2023-05-19T02:49:22;13.00;91.90
3942;DHT22;1985;48.592;8.850;2023-05-19T02:51:48;12.90;92.10
3942;DHT22;1985;48.592;8.850;2023-05-19T02:54:14;12.80;92.20
3942;DHT22;1985;48.592;8.850;2023-05-19T02:56:39;12.80;92.10
3942;DHT22;1985;48.592;8.850;2023-05-19T02:59:05;12.80;92.30
3942;DHT22;1985;48.592;8.850;2023-05-19T03:01:31;12.90;92.00
3942;DHT22;1985;48.592;8.850;2023-05-19T03:03:59;12.90;91.80
3942;DHT22;1985;48.592;8.850;2023-05-19T03:06:24;12.80;91.80
3942;DHT22;1985;48.592;8.850;2023-05-19T03:08:50;12.80;92.00
3942;DHT22;1985;48.592;8.850;2023-05-19T03:11:16;12.80;91.80
3942;DHT22;1985;48.592;8.850;2023-05-19T03:13:41;12.80;92.10
3942;DHT22;1985;48.592;8.850;2023-05-19T03:16:07;12.80;92.20
3942;DHT22;1985;48.592;8.850;2023-05-19T03:18:33;12.90;92.30
3942;DHT22;1985;48.592;8.850;2023-05-19T03:20:59;12.90;92.50
3942;DHT22;1985;48.592;8.850;2023-05-19T03:23:25;12.90;92.30
3942;DHT22;1985;48.592;8.850;2023-05-19T03:25:51;12.90;92.00
3942;DHT22;1985;48.592;8.850;2023-05-19T03:28:20;12.90;91.90
3942;DHT22;1985;48.592;8.850;2023-05-19T03:30:48;12.80;91.90
3942;DHT22;1985;48.592;8.850;2023-05-19T03:33:16;12.70;91.80
3942;DHT22;1985;48.592;8.850;2023-05-19T03:35:42;12.70;92.10
3942;DHT22;1985;48.592;8.850;2023-05-19T03:38:09;12.70;92.20
3942;DHT22;1985;48.592;8.850;2023-05-19T03:40:34;12.60;92.30
3942;DHT22;1985;48.592;8.850;2023-05-19T03:43:00;12.60;92.40
3942;DHT22;1985;48.592;8.850;2023-05-19T03:45:26;12.70;92.60
3942;DHT22;1985;48.592;8.850;2023-05-19T03:47:52;12.70;92.60
3942;DHT22;1985;48.592;8.850;2023-05-19T03:50:17;12.70;93.20
3942;DHT22;1985;48.592;8.850;2023-05-19T03:52:43;12.70;93.20
3942;DHT22;1985;48.592;8.850;2023-05-19T03:55:11;12.70;93.00
3942;DHT22;1985;48.592;8.850;2023-05-19T03:57:36;12.70;92.70
3942;DHT22;1985;48.592;8.850;2023-05-19T04:00:03;12.70;92.80
3942;DHT22;1985;48.592;8.850;2023-05-19T04:02:30;12.60;93.50
3942;DHT22;1985;48.592;8.850;2023-05-19T04:04:56;12.60;93.80
3942;DHT22;1985;48.592;8.850;2023-05-19T04:07:22;12.60;93.20
3942;DHT22;1985;48.592;8.850;2023-05-19T04:09:48;12.60;93.40
3942;DHT22;1985;48.592;8.850;2023-05-19T04:12:14;12.60;94.20
3942;DHT22;1985;48.592;8.850;2023-05-19T04:14:39;12.60;94.40
3942;DHT22;1985;48.592;8.850;2023-05-19T04:17:05;12.60;94.50
3942;DHT22;1985;48.592;8.850;2023-05-19T04:19:31;12.60;94.60
3942;DHT22;1985;48.592;8.850;2023-05-19T04:21:56;12.70;94.50
3942;DHT22;1985;48.592;8.850;2023-05-19T04:24:22;12.80;94.40
3942;DHT22;1985;48.592;8.850;2023-05-19T04:26:48;12.80;94.30
3942;DHT22;1985;48.592;8.850;2023-05-19T04:29:13;12.90;94.20
3942;DHT22;1985;48.592;8.850;2023-05-19T04:31:45;12.90;94.00
3942;DHT22;1985;48.592;8.850;2023-05-19T04:34:10;13.00;94.00
3942;DHT22;1985;48.592;8.850;2023-05-19T04:36:36;13.00;93.80
3942;DHT22;1985;48.592;8.850;2023-05-19T04:39:02;12.90;93.50
3942;DHT22;1985;48.592;8.850;2023-05-19T04:41:32;12.90;93.60
3942;DHT22;1985;48.592;8.850;2023-05-19T04:43:59;12.90;93.50
3942;DHT22;1985;48.592;8.850;2023-05-19T04:46:25;12.90;93.50
3942;DHT22;1985;48.592;8.850;2023-05-19T04:48:51;12.90;93.60
3942;DHT22;1985;48.592;8.850;2023-05-19T04:51:22;12.90;93.60
3942;DHT22;1985;48.592;8.850;2023-05-19T04:53:54;12.80;93.90
3942;DHT22;1985;48.592;8.850;2023-05-19T04:56:19;12.80;93.60
3942;DHT22;1985;48.592;8.850;2023-05-19T04:58:45;12.70;93.60
3942;DHT22;1985;48.592;8.850;2023-05-19T05:01:10;12.70;93.60
3942;DHT22;1985;48.592;8.850;2023-05-19T05:03:38;12.60;93.90
3942;DHT22;1985;48.592;8.850;2023-05-19T05:06:04;12.70;93.90
3942;DHT22;1985;48.592;8.850;2023-05-19T05:08:30;12.70;93.70
3942;DHT22;1985;48.592;8.850;2023-05-19T05:10:56;12.80;93.90
3942;DHT22;1985;48.592;8.850;2023-05-19T05:13:23;12.80;94.00
3942;DHT22;1985;48.592;8.850;2023-05-19T05:15:49;12.80;93.60
3942;DHT22;1985;48.592;8.850;2023-05-19T05:18:16;12.80;93.60
3942;DHT22;1985;48.592;8.850;2023-05-19T05:20:43;12.80;93.90
3942;DHT22;1985;48.592;8.850;2023-05-19T05:23:09;12.90;94.10
3942;DHT22;1985;48.592;8.850;2023-05-19T05:25:39;12.90;94.00
3942;DHT22;1985;48.592;8.850;2023-05-19T05:28:05;13.00;94.00
3942;DHT22;1985;48.592;8.850;2023-05-19T05:30:32;13.10;94.20
3942;DHT22;1985;48.592;8.850;2023-05-19T05:32:58;13.10;93.90
3942;DHT22;1985;48.592;8.850;2023-05-19T05:35:24;13.10;94.00
3942;DHT22;1985;48.592;8.850;2023-05-19T05:37:50;13.10;93.90
3942;DHT22;1985;48.592;8.850;2023-05-19T05:40:15;13.20;93.70
3942;DHT22;1985;48.592;8.850;2023-05-19T05:42:42;13.10;93.90
3942;DHT22;1985;48.592;8.850;2023-05-19T05:45:07;13.10;93.60
3942;DHT22;1985;48.592;8.850;2023-05-19T05:47:33;13.10;93.60
3942;DHT22;1985;48.592;8.850;2023-05-19T05:50:03;13.00;93.50
3942;DHT22;1985;48.592;8.850;2023-05-19T05:52:29;13.00;94.20
3942;DHT22;1985;48.592;8.850;2023-05-19T05:54:56;12.90;94.00
3942;DHT22;1985;48.592;8.850;2023-05-19T05:57:22;13.00;94.10
3942;DHT22;1985;48.592;8.850;2023-05-19T05:59:48;13.00;94.30
3942;DHT22;1985;48.592;8.850;2023-05-19T06:02:16;13.00;94.50
3942;DHT22;1985;48.592;8.850;2023-05-19T06:04:41;13.00;94.10
3942;DHT22;1985;48.592;8.850;2023-05-19T06:07:08;13.00;93.90
3942;DHT22;1985;48.592;8.850;2023-05-19T06:09:34;12.90;94.20
3942;DHT22;1985;48.592;8.850;2023-05-19T06:11:59;12.90;94.60
3942;DHT22;1985;48.592;8.850;2023-05-19T06:14:25;12.80;94.60
3942;DHT22;1985;48.592;8.850;2023-05-19T06:16:51;13.00;94.80
3942;DHT22;1985;48.592;8.850;2023-05-19T06:19:17;13.10;94.70
3942;DHT22;1985;48.592;8.850;2023-05-19T06:21:44;13.30;94.90
3942;DHT22;1985;48.592;8.850;2023-05-19T06:24:10;13.50;94.00
3942;DHT22;1985;48.592;8.850;2023-05-19T06:26:35;13.70;94.00
3942;DHT22;1985;48.592;8.850;2023-05-19T06:29:01;13.80;94.10
3942;DHT22;1985;48.592;8.850;2023-05-19T06:31:27;13.90;93.50
3942;DHT22;1985;48.592;8.850;2023-05-19T06:33:53;13.80;93.10
3942;DHT22;1985;48.592;8.850;2023-05-19T06:36:19;13.70;93.30
3942;DHT22;1985;48.592;8.850;2023-05-19T06:38:44;13.70;93.60
3942;DHT22;1985;48.592;8.850;2023-05-19T06:41:10;13.80;93.70
3942;DHT22;1985;48.592;8.850;2023-05-19T06:43:36;13.80;93.30
3942;DHT22;1985;48.592;8.850;2023-05-19T06:46:01;13.80;93.40
3942;DHT22;1985;48.592;8.850;2023-05-19T06:48:27;13.90;93.50
3942;DHT22;1985;48.592;8.850;2023-05-19T06:50:52;13.90;93.30
3942;DHT22;1985;48.592;8.850;2023-05-19T06:53:19;13.90;93.20
3942;DHT22;1985;48.592;8.850;2023-05-19T06:55:45;13.90;93.20
3942;DHT22;1985;48.592;8.850;2023-05-19T06:58:11;14.00;93.30
3942;DHT22;1985;48.592;8.850;2023-05-19T07:00:36;14.00;93.40
3942;DHT22;1985;48.592;8.850;2023-05-19T07:03:02;14.00;92.70
3942;DHT22;1985;48.592;8.850;2023-05-19T07:05:28;14.10;92.60
3942;DHT22;1985;48.592;8.850;2023-05-19T07:07:53;14.00;92.10
3942;DHT22;1985;48.592;8.850;2023-05-19T07:10:19;14.00;92.70
3942;DHT22;1985;48.592;8.850;2023-05-19T07:12:46;14.10;92.80
3942;DHT22;1985;48.592;8.850;2023-05-19T07:15:11;14.30;92.40
3942;DHT22;1985;48.592;8.850;2023-05-19T07:17:37;14.20;91.90
3942;DHT22;1985;48.592;8.850;2023-05-19T07:20:03;14.20;92.30
3942;DHT22;1985;48.592;8.850;2023-05-19T07:22:34;14.20;92.40
3942;DHT22;1985;48.592;8.850;2023-05-19T07:25:00;14.40;92.70
3942;DHT22;1985;48.592;8.850;2023-05-19T07:27:25;14.50;92.20
3942;DHT22;1985;48.592;8.850;2023-05-19T07:29:51;14.60;92.70
3942;DHT22;1985;48.592;8.850;2023-05-19T07:32:17;14.50;92.00
3942;DHT22;1985;48.592;8.850;2023-05-19T07:34:42;14.40;91.90
3942;DHT22;1985;48.592;8.850;2023-05-19T07:37:08;14.50;91.80
3942;DHT22;1985;48.592;8.850;2023-05-19T07:39:34;14.50;91.50
3942;DHT22;1985;48.592;8.850;2023-05-19T07:42:00;14.60;91.60
3942;DHT22;1985;48.592;8.850;2023-05-19T07:44:26;14.70;91.50
3942;DHT22;1985;48.592;8.850;2023-05-19T07:46:52;14.70;91.60
3942;DHT22;1985;48.592;8.850;2023-05-19T07:49:18;14.80;91.00
3942;DHT22;1985;48.592;8.850;2023-05-19T07:51:44;14.70;91.10
3942;DHT22;1985;48.592;8.850;2023-05-19T07:54:10;14.70;91.20
3942;DHT22;1985;48.592;8.850;2023-05-19T07:56:36;14.50;91.40
3942;DHT22;1985;48.592;8.850;2023-05-19T07:59:02;14.40;91.20
3942;DHT22;1985;48.592;8.850;2023-05-19T08:01:29;14.40;91.40
3942;DHT22;1985;48.592;8.850;2023-05-19T08:03:55;14.30;91.30
3942;DHT22;1985;48.592;8.850;2023-05-19T08:06:21;14.20;91.60
3942;DHT22;1985;48.592;8.850;2023-05-19T08:08:46;14.10;91.50
3942;DHT22;1985;48.592;8.850;2023-05-19T08:11:12;14.10;91.80
3942;DHT22;1985;48.592;8.850;2023-05-19T08:13:38;14.10;92.10
3942;DHT22;1985;48.592;8.850;2023-05-19T08:16:04;14.20;91.90
3942;DHT22;1985;48.592;8.850;2023-05-19T08:18:30;14.10;92.00
3942;DHT22;1985;48.592;8.850;2023-05-19T08:20:55;14.20;92.20
3942;DHT22;1985;48.592;8.850;2023-05-19T08:23:21;14.30;92.40
3942;DHT22;1985;48.592;8.850;2023-05-19T08:25:47;14.40;92.10
3942;DHT22;1985;48.592;8.850;2023-05-19T08:28:12;14.50;92.20
3942;DHT22;1985;48.592;8.850;2023-05-19T08:30:38;14.50;92.20
3942;DHT22;1985;48.592;8.850;2023-05-19T08:33:04;14.70;92.50
3942;DHT22;1985;48.592;8.850;2023-05-19T08:35:29;14.80;92.30
3942;DHT22;1985;48.592;8.850;2023-05-19T08:37:55;15.00;91.90
3942;DHT22;1985;48.592;8.850;2023-05-19T08:40:22;15.20;91.60
3942;DHT22;1985;48.592;8.850;2023-05-19T08:42:48;15.40;91.80
3942;DHT22;1985;48.592;8.850;2023-05-19T08:45:14;15.70;90.70
3942;DHT22;1985;48.592;8.850;2023-05-19T08:47:45;15.80;90.00
3942;DHT22;1985;48.592;8.850;2023-05-19T08:50:13;15.90;88.70
3942;DHT22;1985;48.592;8.850;2023-05-19T08:58:19;16.00;87.70
3942;DHT22;1985;48.592;8.850;2023-05-19T09:00:47;16.10;87.00
3942;DHT22;1985;48.592;8.850;2023-05-19T09:03:13;16.00;87.10
3942;DHT22;1985;48.592;8.850;2023-05-19T09:05:40;16.00;86.30
3942;DHT22;1985;48.592;8.850;2023-05-19T09:08:06;15.80;86.40
3942;DHT22;1985;48.592;8.850;2023-05-19T09:10:32;15.80;86.70
3942;DHT22;1985;48.592;8.850;2023-05-19T09:12:57;16.00;87.30
3942;DHT22;1985;48.592;8.850;2023-05-19T09:15:25;16.00;86.00
3942;DHT22;1985;48.592;8.850;2023-05-19T09:18:06;16.00;85.10
3942;DHT22;1985;48.592;8.850;2023-05-19T09:20:43;15.90;85.40
3942;DHT22;1985;48.592;8.850;2023-05-19T09:23:14;16.00;85.50
3942;DHT22;1985;48.592;8.850;2023-05-19T09:25:50;15.90;86.50
3942;DHT22;1985;48.592;8.850;2023-05-19T09:28:26;15.90;86.20
3942;DHT22;1985;48.592;8.850;2023-05-19T09:31:00;15.80;85.60
3942;DHT22;1985;48.592;8.850;2023-05-19T09:33:26;15.70;85.20
3942;DHT22;1985;48.592;8.850;2023-05-19T09:35:56;15.70;85.30
3942;DHT22;1985;48.592;8.850;2023-05-19T09:38:25;15.80;84.90
3942;DHT22;1985;48.592;8.850;2023-05-19T09:40:52;15.70;85.20
3942;DHT22;1985;48.592;8.850;2023-05-19T09:43:20;15.50;85.40
3942;DHT22;1985;48.592;8.850;2023-05-19T09:45:46;15.50;85.20
3942;DHT22;1985;48.592;8.850;2023-05-19T09:48:16;15.40;86.00
3942;DHT22;1985;48.592;8.850;2023-05-19T09:50:42;15.40;85.30
3942;DHT22;1985;48.592;8.850;2023-05-19T09:53:14;15.40;85.70
3942;DHT22;1985;48.592;8.850;2023-05-19T09:55:41;15.30;84.90
3942;DHT22;1985;48.592;8.850;2023-05-19T09:58:07;15.40;85.40
3942;DHT22;1985;48.592;8.850;2023-05-19T10:00:33;15.40;86.10
3942;DHT22;1985;48.592;8.850;2023-05-19T10:02:59;15.40;86.40
3942;DHT22;1985;48.592;8.850;2023-05-19T10:05:26;15.50;85.80
3942;DHT22;1985;48.592;8.850;2023-05-19T10:07:54;15.50;86.10
3942;DHT22;1985;48.592;8.850;2023-05-19T10:10:20;15.50;85.60
3942;DHT22;1985;48.592;8.850;2023-05-19T10:12:47;15.50;85.80
3942;DHT22;1985;48.592;8.850;2023-05-19T10:15:15;15.60;84.90
3942;DHT22;1985;48.592;8.850;2023-05-19T10:17:42;15.30;85.90
3942;DHT22;1985;48.592;8.850;2023-05-19T10:20:15;15.30;87.10
3942;DHT22;1985;48.592;8.850;2023-05-19T10:22:42;15.30;85.00
3942;DHT22;1985;48.592;8.850;2023-05-19T10:25:09;15.20;86.30
3942;DHT22;1985;48.592;8.850;2023-05-19T10:27:40;15.10;86.80
3942;DHT22;1985;48.592;8.850;2023-05-19T10:30:12;15.20;87.40
3942;DHT22;1985;48.592;8.850;2023-05-19T10:32:41;15.20;86.50
3942;DHT22;1985;48.592;8.850;2023-05-19T10:35:27;15.30;86.80
3942;DHT22;1985;48.592;8.850;2023-05-19T10:41:15;15.50;87.90
3942;DHT22;1985;48.592;8.850;2023-05-19T10:43:57;15.60;86.40
3942;DHT22;1985;48.592;8.850;2023-05-19T10:46:28;15.50;86.20
3942;DHT22;1985;48.592;8.850;2023-05-19T10:48:54;15.40;86.40
3942;DHT22;1985;48.592;8.850;2023-05-19T10:51:20;15.40;86.00
3942;DHT22;1985;48.592;8.850;2023-05-19T10:53:52;15.40;87.00
3942;DHT22;1985;48.592;8.850;2023-05-19T10:56:29;15.40;86.50
3942;DHT22;1985;48.592;8.850;2023-05-19T10:58:55;15.50;87.00
3942;DHT22;1985;48.592;8.850;2023-05-19T11:01:21;15.30;87.50
3942;DHT22;1985;48.592;8.850;2023-05-19T11:03:55;15.20;87.30
3942;DHT22;1985;48.592;8.850;2023-05-19T11:06:27;15.00;87.80
3942;DHT22;1985;48.592;8.850;2023-05-19T11:14:15;14.90;87.90
3942;DHT22;1985;48.592;8.850;2023-05-19T11:16:44;14.80;88.60
3942;DHT22;1985;48.592;8.850;2023-05-19T11:19:37;14.80;88.50
3942;DHT22;1985;48.592;8.850;2023-05-19T11:22:10;14.80;88.80
3942;DHT22;1985;48.592;8.850;2023-05-19T11:24:43;14.80;88.90
3942;DHT22;1985;48.592;8.850;2023-05-19T11:27:29;14.80;88.50
3942;DHT22;1985;48.592;8.850;2023-05-19T11:30:01;14.70;89.00
3942;DHT22;1985;48.592;8.850;2023-05-19T11:32:34;14.80;88.80
3942;DHT22;1985;48.592;8.850;2023-05-19T11:35:04;14.90;89.20
3942;DHT22;1985;48.592;8.850;2023-05-19T11:37:32;15.00;89.30
3942;DHT22;1985;48.592;8.850;2023-05-19T11:40:03;15.10;88.50
3942;DHT22;1985;48.592;8.850;2023-05-19T11:42:32;15.10;88.30
3942;DHT22;1985;48.592;8.850;2023-05-19T11:44:59;15.10;87.90
3942;DHT22;1985;48.592;8.850;2023-05-19T11:47:26;15.30;88.60
3942;DHT22;1985;48.592;8.850;2023-05-19T11:49:53;15.50;88.20
3942;DHT22;1985;48.592;8.850;2023-05-19T11:52:22;15.40;86.70
3942;DHT22;1985;48.592;8.850;2023-05-19T11:54:48;15.50;88.00
3942;DHT22;1985;48.592;8.850;2023-05-19T11:57:14;15.50;87.70
3942;DHT22;1985;48.592;8.850;2023-05-19T11:59:40;15.40;87.60
3942;DHT22;1985;48.592;8.850;2023-05-19T12:04:41;15.40;86.60
3942;DHT22;1985;48.592;8.850;2023-05-19T12:07:07;15.40;86.90
3942;DHT22;1985;48.592;8.850;2023-05-19T12:09:33;15.50;87.50
3942;DHT22;1985;48.592;8.850;2023-05-19T12:11:59;15.60;87.80
3942;DHT22;1985;48.592;8.850;2023-05-19T12:14:25;15.70;87.10
3942;DHT22;1985;48.592;8.850;2023-05-19T12:16:51;15.80;87.00
3942;DHT22;1985;48.592;8.850;2023-05-19T12:19:16;15.80;87.60
3942;DHT22;1985;48.592;8.850;2023-05-19T12:21:42;15.90;87.10
3942;DHT22;1985;48.592;8.850;2023-05-19T12:24:08;16.00;87.30
3942;DHT22;1985;48.592;8.850;2023-05-19T12:26:34;16.00;85.80
3942;DHT22;1985;48.592;8.850;2023-05-19T12:29:03;15.70;86.80
3942;DHT22;1985;48.592;8.850;2023-05-19T12:31:29;15.70;86.60
3942;DHT22;1985;48.592;8.850;2023-05-19T12:33:55;15.70;87.30
3942;DHT22;1985;48.592;8.850;2023-05-19T12:36:22;15.70;87.60
3942;DHT22;1985;48.592;8.850;2023-05-19T12:38:53;15.70;87.00
3942;DHT22;1985;48.592;8.850;2023-05-19T12:41:19;15.50;87.00
3942;DHT22;1985;48.592;8.850;2023-05-19T12:43:44;15.60;87.00
3942;DHT22;1985;48.592;8.850;2023-05-19T12:46:11;15.70;87.60
3942;DHT22;1985;48.592;8.850;2023-05-19T12:48:43;15.80;86.80
3942;DHT22;1985;48.592;8.850;2023-05-19T12:51:09;15.70;86.60
3942;DHT22;1985;48.592;8.850;2023-05-19T12:53:36;15.60;87.20
3942;DHT22;1985;48.592;8.850;2023-05-19T12:56:12;15.60;87.60
3942;DHT22;1985;48.592;8.850;2023-05-19T12:58:39;15.60;88.50
3942;DHT22;1985;48.592;8.850;2023-05-19T13:01:05;15.60;86.90
3942;DHT22;1985;48.592;8.850;2023-05-19T13:03:39;15.60;87.30
3942;DHT22;1985;48.592;8.850;2023-05-19T13:06:06;15.50;87.40
3942;DHT22;1985;48.592;8.850;2023-05-19T13:08:31;15.40;88.00
3942;DHT22;1985;48.592;8.850;2023-05-19T13:10:58;15.40;88.50
3942;DHT22;1985;48.592;8.850;2023-05-19T13:13:23;15.50;88.50
3942;DHT22;1985;48.592;8.850;2023-05-19T13:15:49;15.40;87.80
3942;DHT22;1985;48.592;8.850;2023-05-19T13:18:17;15.50;88.80
3942;DHT22;1985;48.592;8.850;2023-05-19T13:20:44;15.50;88.20
3942;DHT22;1985;48.592;8.850;2023-05-19T13:23:12;15.50;88.10
3942;DHT22;1985;48.592;8.850;2023-05-19T13:25:39;15.50;88.30
3942;DHT22;1985;48.592;8.850;2023-05-19T13:28:05;15.50;88.40
3942;DHT22;1985;48.592;8.850;2023-05-19T13:30:35;15.50;88.60
3942;DHT22;1985;48.592;8.850;2023-05-19T13:33:02;15.50;88.60
3942;DHT22;1985;48.592;8.850;2023-05-19T13:35:28;15.50;88.70
3942;DHT22;1985;48.592;8.850;2023-05-19T13:37:55;15.50;88.50
3942;DHT22;1985;48.592;8.850;2023-05-19T13:40:20;15.50;88.20
3942;DHT22;1985;48.592;8.850;2023-05-19T13:42:48;15.40;87.90
3942;DHT22;1985;48.592;8.850;2023-05-19T13:45:13;15.20;88.20
3942;DHT22;1985;48.592;8.850;2023-05-19T13:47:39;15.20;88.50
3942;DHT22;1985;48.592;8.850;2023-05-19T13:50:05;15.30;88.60
3942;DHT22;1985;48.592;8.850;2023-05-19T13:52:31;15.30;88.70
3942;DHT22;1985;48.592;8.850;2023-05-19T13:54:57;15.40;88.90
3942;DHT22;1985;48.592;8.850;2023-05-19T13:57:23;15.60;89.30
3942;DHT22;1985;48.592;8.850;2023-05-19T13:59:49;15.70;89.10
3942;DHT22;1985;48.592;8.850;2023-05-19T14:02:15;15.80;88.80
3942;DHT22;1985;48.592;8.850;2023-05-19T14:04:40;15.90;88.20
3942;DHT22;1985;48.592;8.850;2023-05-19T14:07:06;15.90;87.80
3942;DHT22;1985;48.592;8.850;2023-05-19T14:09:32;15.90;88.20
3942;DHT22;1985;48.592;8.850;2023-05-19T14:11:58;16.00;88.00
3942;DHT22;1985;48.592;8.850;2023-05-19T14:14:23;16.10;87.90
3942;DHT22;1985;48.592;8.850;2023-05-19T14:16:49;16.10;87.30
3942;DHT22;1985;48.592;8.850;2023-05-19T14:19:15;16.20;87.40
3942;DHT22;1985;48.592;8.850;2023-05-19T14:21:41;16.30;88.20
3942;DHT22;1985;48.592;8.850;2023-05-19T14:24:06;16.40;87.40
3942;DHT22;1985;48.592;8.850;2023-05-19T14:26:32;16.30;87.30
3942;DHT22;1985;48.592;8.850;2023-05-19T14:28:58;16.30;86.40
3942;DHT22;1985;48.592;8.850;2023-05-19T14:31:23;16.20;86.30
3942;DHT22;1985;48.592;8.850;2023-05-19T14:33:50;16.10;86.30
3942;DHT22;1985;48.592;8.850;2023-05-19T14:36:15;16.00;86.20
3942;DHT22;1985;48.592;8.850;2023-05-19T14:38:41;16.00;85.50
3942;DHT22;1985;48.592;8.850;2023-05-19T14:41:06;15.70;86.70
3942;DHT22;1985;48.592;8.850;2023-05-19T14:43:32;15.70;87.60
3942;DHT22;1985;48.592;8.850;2023-05-19T14:45:58;15.70;87.00
3942;DHT22;1985;48.592;8.850;2023-05-19T14:48:24;15.50;86.80
3942;DHT22;1985;48.592;8.850;2023-05-19T14:50:49;15.50;87.70
3942;DHT22;1985;48.592;8.850;2023-05-19T14:53:15;15.40;89.00
3942;DHT22;1985;48.592;8.850;2023-05-19T14:55:41;15.40;89.80
3942;DHT22;1985;48.592;8.850;2023-05-19T14:58:07;15.30;89.40
3942;DHT22;1985;48.592;8.850;2023-05-19T15:00:33;15.20;89.60
3942;DHT22;1985;48.592;8.850;2023-05-19T15:02:59;15.20;89.70
3942;DHT22;1985;48.592;8.850;2023-05-19T15:05:24;15.20;89.60
3942;DHT22;1985;48.592;8.850;2023-05-19T15:07:50;15.10;90.00
3942;DHT22;1985;48.592;8.850;2023-05-19T15:10:19;15.10;90.60
3942;DHT22;1985;48.592;8.850;2023-05-19T15:12:45;15.10;89.90
3942;DHT22;1985;48.592;8.850;2023-05-19T15:15:11;15.20;90.00
3942;DHT22;1985;48.592;8.850;2023-05-19T15:17:37;15.20;89.50
3942;DHT22;1985;48.592;8.850;2023-05-19T15:20:03;15.30;90.00
3942;DHT22;1985;48.592;8.850;2023-05-19T15:22:28;15.30;90.10
3942;DHT22;1985;48.592;8.850;2023-05-19T15:24:54;15.40;90.00
3942;DHT22;1985;48.592;8.850;2023-05-19T15:27:20;15.40;90.00
3942;DHT22;1985;48.592;8.850;2023-05-19T15:29:45;15.50;90.20
3942;DHT22;1985;48.592;8.850;2023-05-19T15:32:11;15.50;89.90
3942;DHT22;1985;48.592;8.850;2023-05-19T15:34:37;15.50;89.80
3942;DHT22;1985;48.592;8.850;2023-05-19T15:37:02;15.50;89.50
3942;DHT22;1985;48.592;8.850;2023-05-19T15:39:31;15.50;89.20
3942;DHT22;1985;48.592;8.850;2023-05-19T15:41:58;15.50;89.10
3942;DHT22;1985;48.592;8.850;2023-05-19T15:44:23;15.50;88.70
3942;DHT22;1985;48.592;8.850;2023-05-19T15:46:49;15.50;89.10
3942;DHT22;1985;48.592;8.850;2023-05-19T15:49:14;15.50;88.70
3942;DHT22;1985;48.592;8.850;2023-05-19T15:51:42;15.50;89.30
3942;DHT22;1985;48.592;8.850;2023-05-19T15:54:08;15.50;88.90
3942;DHT22;1985;48.592;8.850;2023-05-19T15:56:33;15.50;89.10
3942;DHT22;1985;48.592;8.850;2023-05-19T15:58:59;15.50;89.30
3942;DHT22;1985;48.592;8.850;2023-05-19T16:01:25;15.50;89.90
3942;DHT22;1985;48.592;8.850;2023-05-19T16:03:50;15.50;89.40
3942;DHT22;1985;48.592;8.850;2023-05-19T16:06:16;15.50;89.10
3942;DHT22;1985;48.592;8.850;2023-05-19T16:08:42;15.50;89.90
3942;DHT22;1985;48.592;8.850;2023-05-19T16:11:07;15.30;89.50
3942;DHT22;1985;48.592;8.850;2023-05-19T16:13:33;15.30;90.10
3942;DHT22;1985;48.592;8.850;2023-05-19T16:15:59;15.40;90.30
3942;DHT22;1985;48.592;8.850;2023-05-19T16:18:24;15.40;90.20
3942;DHT22;1985;48.592;8.850;2023-05-19T16:20:50;15.50;90.00
3942;DHT22;1985;48.592;8.850;2023-05-19T16:23:16;15.50;89.90
3942;DHT22;1985;48.592;8.850;2023-05-19T16:25:41;15.50;90.00
3942;DHT22;1985;48.592;8.850;2023-05-19T16:28:07;15.40;89.70
3942;DHT22;1985;48.592;8.850;2023-05-19T16:30:33;15.40;89.90
3942;DHT22;1985;48.592;8.850;2023-05-19T16:32:59;15.40;89.80